PRINT OUT SECTION, show »

METAR EPBY 171330Z 26012KT CAVOK 25/12 Q1018=

METAR EPGD 171330Z 25013KT 220V280 CAVOK 24/13 Q1017 =

METAR EPKK 171330Z 33006KT 9999 SCT046 28/19 Q1018 =

METAR EPKT 171330Z 32011KT CAVOK 25/15 Q1020 =

METAR EPLB 171330Z 01003KT 320V070 9999 FEW045 29/18 Q1018 =

METAR EPLL 171330Z 25012KT CAVOK 25/13 Q1019 =

METAR EPML 171330Z AUTO 01005KT 270V070 9999 FEW140/// 29/15 Q1018=

METAR EPMO 171330Z 23012KT 180V250 CAVOK 29/15 Q1018 =

METAR EPPO 171330Z 26013KT 200V280 CAVOK 26/12 Q1019 =

METAR EPRA 171330Z 27008KT 230V300 9999 SCT043 28/20 Q1018=

METAR EPRZ 171330Z 30005KT 9999 FEW020CB 25/22 Q1018 =

METAR EPSC 171330Z 25008KT 9999 FEW037 21/14 Q1018 =

METAR EPSY 171330Z 25013KT 200V280 CAVOK 27/12 Q1017=

METAR EPWA 171330Z 25008KT CAVOK 29/15 Q1018 NOSIG=

METAR EPWR 171330Z 16008KT 9999 FEW040 24/15 Q1020 =

METAR EPZG 171330Z 24010KT CAVOK 24/14 Q1019 =
 METAR EPKT
Lokalizacja:EPKT Katowice Pyrzowice
Czas:13:30 UTC
Średni kierunek wiatru:320 °
Średnia prędkość wiatru:11 węzłów
CAVOK:Widzialność 10 km i więcej, zjawisko: NIL, zachmurzenie: NSC
Temperatura powietrza:25 °C
Temperatura punktu rosy:15 °C
Ciśnienie QNH:1020 hPa